createdAt,value
2023-07-16T00:01:46.819Z,20.20
2023-07-16T00:04:24.880Z,20.10
2023-07-16T00:06:59.368Z,20.20
2023-07-16T00:09:40.515Z,20.10
2023-07-16T00:12:22.163Z,20.10
2023-07-16T00:15:11.821Z,20.10
2023-07-16T00:17:49.917Z,20.00
2023-07-16T00:20:22.617Z,20.00
2023-07-16T00:22:53.021Z,20.00
2023-07-16T00:25:29.314Z,20.00
2023-07-16T00:28:01.281Z,19.90
2023-07-16T00:30:32.533Z,19.90
2023-07-16T00:33:06.525Z,19.90
2023-07-16T00:35:39.299Z,19.90
2023-07-16T00:38:15.076Z,19.90
2023-07-16T00:40:43.773Z,19.80
2023-07-16T00:43:16.667Z,19.80
2023-07-16T00:45:49.872Z,19.80
2023-07-16T00:48:30.828Z,19.80
2023-07-16T00:51:13.381Z,19.80
2023-07-16T00:53:47.906Z,19.80
2023-07-16T00:56:27.715Z,19.80
2023-07-16T00:59:10.494Z,19.70
2023-07-16T01:01:49.640Z,19.70
2023-07-16T01:04:24.686Z,19.70
2023-07-16T01:07:00.681Z,19.70
2023-07-16T01:09:43.229Z,19.60
2023-07-16T01:12:17.140Z,19.60
2023-07-16T01:14:55.980Z,19.60
2023-07-16T01:17:33.480Z,19.60
2023-07-16T01:20:01.827Z,19.50
2023-07-16T01:22:57.404Z,19.50
2023-07-16T01:25:47.248Z,19.50
2023-07-16T01:28:44.003Z,19.50
2023-07-16T01:31:14.096Z,19.50
2023-07-16T01:33:44.293Z,19.40
2023-07-16T01:36:16.273Z,19.40
2023-07-16T01:38:45.187Z,19.40
2023-07-16T01:41:13.398Z,19.40
2023-07-16T01:43:41.633Z,19.40
2023-07-16T01:46:10.175Z,19.40
2023-07-16T01:48:40.432Z,19.40
2023-07-16T01:51:08.575Z,19.30
2023-07-16T01:53:36.792Z,19.30
2023-07-16T01:56:05.899Z,19.30
2023-07-16T01:58:34.153Z,19.30
2023-07-16T02:01:02.419Z,19.30
2023-07-16T02:03:30.713Z,19.30
2023-07-16T02:06:00.259Z,19.30
2023-07-16T02:08:28.437Z,19.30
2023-07-16T02:10:56.540Z,19.30
2023-07-16T02:13:25.286Z,19.30
2023-07-16T02:15:53.410Z,19.30
2023-07-16T02:18:21.531Z,19.20
2023-07-16T02:20:49.711Z,19.20
2023-07-16T02:23:19.186Z,19.20
2023-07-16T02:25:47.288Z,19.20
2023-07-16T02:28:18.612Z,19.20
2023-07-16T02:30:47.704Z,19.20
2023-07-16T02:33:15.829Z,19.20
2023-07-16T02:35:48.521Z,19.10
2023-07-16T02:38:18.607Z,19.20
2023-07-16T02:40:47.125Z,19.10
2023-07-16T02:43:15.927Z,19.10
2023-07-16T02:45:44.107Z,19.10
2023-07-16T02:48:12.260Z,19.10
2023-07-16T02:50:40.627Z,19.10
2023-07-16T02:53:09.458Z,19.10
2023-07-16T02:55:38.992Z,19.00
2023-07-16T02:58:07.192Z,19.00
2023-07-16T03:00:36.346Z,19.10
2023-07-16T03:03:04.801Z,19.00
2023-07-16T03:05:33.014Z,19.00
2023-07-16T03:08:01.166Z,19.00
2023-07-16T03:10:29.518Z,19.00
2023-07-16T03:12:58.978Z,18.90
2023-07-16T03:15:27.159Z,18.90
2023-07-16T03:17:55.330Z,18.90
2023-07-16T03:20:23.469Z,18.90
2023-07-16T03:22:51.844Z,18.90
2023-07-16T03:25:20.082Z,18.90
2023-07-16T03:27:48.184Z,18.90
2023-07-16T03:30:17.824Z,18.90
2023-07-16T03:32:52.599Z,18.80
2023-07-16T03:35:25.895Z,18.80
2023-07-16T03:37:54.898Z,18.80
2023-07-16T03:40:27.099Z,18.80
2023-07-16T03:42:55.478Z,18.80
2023-07-16T03:45:26.506Z,18.80
2023-07-16T03:47:55.702Z,18.70
2023-07-16T03:50:24.130Z,18.80
2023-07-16T03:52:52.354Z,18.80
2023-07-16T03:55:20.829Z,18.70
2023-07-16T03:57:48.943Z,18.80
2023-07-16T04:00:17.191Z,18.70
2023-07-16T04:02:52.258Z,18.70
2023-07-16T04:05:23.995Z,18.70
2023-07-16T04:07:53.137Z,18.70
2023-07-16T04:10:21.994Z,18.70
2023-07-16T04:12:50.177Z,18.70
2023-07-16T04:15:18.250Z,18.70
2023-07-16T04:17:46.349Z,18.70
2023-07-16T04:20:15.852Z,18.60
2023-07-16T04:22:43.984Z,18.60
2023-07-16T04:25:12.131Z,18.60
2023-07-16T04:27:41.992Z,18.60
2023-07-16T04:30:10.760Z,18.60
2023-07-16T04:32:38.912Z,18.60
2023-07-16T04:35:08.172Z,18.60
2023-07-16T04:37:37.689Z,18.60
2023-07-16T04:40:06.877Z,18.60
2023-07-16T04:42:35.029Z,18.60
2023-07-16T04:45:03.179Z,18.60
2023-07-16T04:47:31.357Z,18.60
2023-07-16T04:50:00.712Z,18.60
2023-07-16T04:52:28.864Z,18.50
2023-07-16T04:54:58.341Z,18.50
2023-07-16T04:57:26.452Z,18.50
2023-07-16T04:59:55.546Z,18.50
2023-07-16T05:02:23.676Z,18.50
2023-07-16T05:04:51.761Z,18.50
2023-07-16T05:07:19.886Z,18.50
2023-07-16T05:09:48.019Z,18.50
2023-07-16T05:12:17.522Z,18.50
2023-07-16T05:14:47.147Z,18.50
2023-07-16T05:17:15.552Z,18.50
2023-07-16T05:19:44.232Z,18.50
2023-07-16T05:22:12.385Z,18.50
2023-07-16T05:24:40.455Z,18.50
2023-07-16T05:27:08.642Z,18.50
2023-07-16T05:29:38.150Z,18.60
2023-07-16T05:32:07.208Z,18.60
2023-07-16T05:34:35.718Z,18.60
2023-07-16T05:37:03.941Z,18.60
2023-07-16T05:39:32.030Z,18.60
2023-07-16T05:42:02.226Z,18.60
2023-07-16T05:44:30.408Z,18.70
2023-07-16T05:47:00.233Z,18.70
2023-07-16T05:49:28.798Z,18.80
2023-07-16T05:51:56.881Z,18.90
2023-07-16T05:54:25.458Z,19.00
2023-07-16T05:56:54.279Z,19.10
2023-07-16T05:59:23.675Z,19.30
2023-07-16T06:01:51.751Z,19.40
2023-07-16T06:04:21.252Z,19.60
2023-07-16T06:06:52.682Z,19.70
2023-07-16T06:09:21.152Z,19.90
2023-07-16T06:11:49.612Z,20.00
2023-07-16T06:14:18.454Z,20.20
2023-07-16T06:16:46.645Z,20.40
2023-07-16T06:19:14.820Z,20.50
2023-07-16T06:21:44.274Z,20.70
2023-07-16T06:24:15.032Z,20.80
2023-07-16T06:26:45.650Z,20.90
2023-07-16T06:29:13.693Z,21.10
2023-07-16T06:31:44.175Z,21.10
2023-07-16T06:34:12.306Z,21.20
2023-07-16T06:36:40.760Z,21.30
2023-07-16T06:39:10.358Z,21.40
2023-07-16T06:41:38.423Z,21.50
2023-07-16T06:44:09.915Z,21.50
2023-07-16T06:46:38.061Z,21.50
2023-07-16T06:49:07.946Z,21.60
2023-07-16T06:51:36.050Z,21.70
2023-07-16T06:54:04.124Z,21.80
2023-07-16T06:56:33.634Z,21.80
2023-07-16T06:59:01.724Z,21.80
2023-07-16T07:01:29.899Z,21.70
2023-07-16T07:03:58.125Z,21.60
2023-07-16T07:06:26.265Z,21.50
2023-07-16T07:08:54.520Z,21.50
2023-07-16T07:11:22.865Z,21.40
2023-07-16T07:13:54.897Z,21.40
2023-07-16T07:16:23.068Z,21.40
2023-07-16T07:18:51.139Z,21.40
2023-07-16T07:21:19.211Z,21.50
2023-07-16T07:23:47.274Z,21.60
2023-07-16T07:26:15.652Z,21.70
2023-07-16T07:28:43.973Z,21.90
2023-07-16T07:31:13.577Z,22.00
2023-07-16T07:33:42.130Z,22.00
2023-07-16T07:36:11.160Z,22.10
2023-07-16T07:38:39.360Z,22.10
2023-07-16T07:41:07.721Z,22.10
2023-07-16T07:43:35.803Z,22.00
2023-07-16T07:46:03.901Z,22.00
2023-07-16T07:48:33.466Z,21.90
2023-07-16T07:51:01.614Z,21.80
2023-07-16T07:53:29.652Z,21.80
2023-07-16T07:55:57.869Z,21.80
2023-07-16T07:58:25.969Z,21.90
2023-07-16T08:00:54.106Z,22.00
2023-07-16T08:03:22.383Z,22.00
2023-07-16T08:05:52.372Z,22.10
2023-07-16T08:08:20.546Z,22.10
2023-07-16T08:10:48.833Z,22.10
2023-07-16T08:13:16.961Z,22.10
2023-07-16T08:15:45.040Z,22.00
2023-07-16T08:18:13.188Z,22.00
2023-07-16T08:20:41.965Z,22.00
2023-07-16T08:23:12.700Z,22.00
2023-07-16T08:25:40.969Z,22.10
2023-07-16T08:28:09.193Z,22.10
2023-07-16T08:30:37.286Z,22.20
2023-07-16T08:33:05.483Z,22.30
2023-07-16T08:35:33.583Z,22.30
2023-07-16T08:38:01.701Z,22.30
2023-07-16T08:40:31.182Z,22.40
2023-07-16T08:42:59.803Z,22.40
2023-07-16T08:45:31.486Z,22.30
2023-07-16T08:48:00.112Z,22.40
2023-07-16T08:50:32.393Z,22.30
2023-07-16T08:53:01.441Z,22.30
2023-07-16T08:55:31.026Z,22.30
2023-07-16T08:57:59.951Z,22.30
2023-07-16T09:00:29.172Z,22.30
2023-07-16T09:02:57.825Z,22.20
2023-07-16T09:05:38.532Z,22.20
2023-07-16T09:08:08.477Z,22.10
2023-07-16T09:10:37.990Z,22.20
2023-07-16T09:13:06.127Z,22.20
2023-07-16T09:15:35.265Z,22.20
2023-07-16T09:18:04.356Z,22.30
2023-07-16T09:20:32.746Z,22.30
2023-07-16T09:23:01.351Z,22.40
2023-07-16T09:25:30.105Z,22.50
2023-07-16T09:28:03.946Z,22.50
2023-07-16T09:30:34.168Z,22.60
2023-07-16T09:33:12.598Z,22.50
2023-07-16T09:35:40.720Z,22.50
2023-07-16T09:38:10.455Z,22.50
2023-07-16T09:40:39.041Z,22.60
2023-07-16T09:43:09.267Z,22.70
2023-07-16T09:45:37.974Z,22.70
2023-07-16T09:48:06.966Z,22.60
2023-07-16T09:50:37.242Z,22.60
2023-07-16T09:53:08.415Z,22.60
2023-07-16T09:55:37.842Z,22.50
2023-07-16T09:58:11.752Z,22.50
2023-07-16T10:00:41.333Z,22.50
2023-07-16T10:03:10.395Z,22.50
2023-07-16T10:05:39.685Z,22.40
2023-07-16T10:08:17.330Z,22.50
2023-07-16T10:10:49.354Z,22.50
2023-07-16T10:13:19.473Z,22.50
2023-07-16T10:15:55.434Z,22.60
2023-07-16T10:18:29.696Z,22.60
2023-07-16T10:21:07.140Z,22.70
2023-07-16T10:23:42.697Z,22.70
2023-07-16T10:26:15.834Z,22.80
2023-07-16T10:28:48.755Z,22.90
2023-07-16T10:31:22.712Z,22.90
2023-07-16T10:34:02.525Z,23.00
2023-07-16T10:36:30.908Z,23.00
2023-07-16T10:39:05.085Z,23.00
2023-07-16T10:41:33.820Z,23.00
2023-07-16T10:44:03.916Z,22.90
2023-07-16T10:46:34.216Z,22.90
2023-07-16T10:49:03.164Z,22.90
2023-07-16T10:51:31.723Z,22.90
2023-07-16T10:53:59.982Z,22.90
2023-07-16T10:56:28.249Z,22.90
2023-07-16T10:58:56.353Z,22.90
2023-07-16T11:01:25.843Z,22.90
2023-07-16T11:03:54.070Z,22.90
2023-07-16T11:06:22.203Z,23.00
2023-07-16T11:08:51.409Z,23.00
2023-07-16T11:11:30.063Z,23.00
2023-07-16T11:13:58.289Z,23.10
2023-07-16T11:16:27.766Z,23.10
2023-07-16T11:18:55.878Z,23.20
2023-07-16T11:21:24.097Z,23.30
2023-07-16T11:23:52.200Z,23.30
2023-07-16T11:26:20.558Z,23.30
2023-07-16T11:28:51.869Z,23.30
2023-07-16T11:31:23.022Z,23.40
2023-07-16T11:33:54.368Z,23.40
2023-07-16T11:36:22.460Z,23.40
2023-07-16T11:38:51.276Z,23.30
2023-07-16T11:41:22.527Z,23.30
2023-07-16T11:43:51.146Z,23.30
2023-07-16T11:46:19.801Z,23.30
2023-07-16T11:48:48.164Z,23.30
2023-07-16T11:51:17.606Z,23.30
2023-07-16T11:53:45.641Z,23.30
2023-07-16T11:56:13.949Z,23.30
2023-07-16T11:58:42.118Z,23.30
2023-07-16T12:01:10.320Z,23.30
2023-07-16T12:03:38.467Z,23.20
2023-07-16T12:06:06.576Z,23.20
2023-07-16T12:08:36.016Z,23.20
2023-07-16T12:11:04.083Z,23.20
2023-07-16T12:13:32.166Z,23.30
2023-07-16T12:16:00.230Z,23.40
2023-07-16T12:18:28.321Z,23.50
2023-07-16T12:20:56.378Z,23.50
2023-07-16T12:23:24.727Z,23.50
2023-07-16T12:25:54.252Z,23.40
2023-07-16T12:28:22.316Z,23.30
2023-07-16T12:30:50.499Z,23.30
2023-07-16T12:33:18.605Z,23.30
2023-07-16T12:35:48.294Z,23.30
2023-07-16T12:38:16.380Z,23.20
2023-07-16T12:40:44.524Z,23.30
2023-07-16T12:43:14.032Z,23.30
2023-07-16T12:45:42.147Z,23.20
2023-07-16T12:48:10.326Z,23.20
2023-07-16T12:50:38.383Z,23.10
2023-07-16T12:53:06.623Z,23.10
2023-07-16T12:55:34.983Z,23.10
2023-07-16T12:58:03.040Z,23.00
2023-07-16T13:00:32.518Z,23.00
2023-07-16T13:03:00.655Z,23.00
2023-07-16T13:05:29.190Z,23.00
2023-07-16T13:07:57.241Z,23.00
2023-07-16T13:10:25.419Z,23.00
2023-07-16T13:12:53.603Z,23.00
2023-07-16T13:15:21.882Z,22.90
2023-07-16T13:17:51.336Z,22.90
2023-07-16T13:20:21.296Z,22.80
2023-07-16T13:22:49.704Z,22.80
2023-07-16T13:25:18.026Z,22.80
2023-07-16T13:27:46.101Z,22.90
2023-07-16T13:30:14.715Z,22.80
2023-07-16T13:32:42.884Z,22.90
2023-07-16T13:35:12.459Z,22.90
2023-07-16T13:37:40.579Z,22.90
2023-07-16T13:40:09.804Z,22.90
2023-07-16T13:42:37.934Z,22.80
2023-07-16T13:45:07.410Z,22.90
2023-07-16T13:47:35.644Z,22.90
2023-07-16T13:50:05.164Z,22.90
2023-07-16T13:52:34.660Z,23.00
2023-07-16T13:55:04.652Z,23.00
2023-07-16T13:57:32.867Z,23.00
2023-07-16T14:00:01.566Z,23.10
2023-07-16T14:02:33.010Z,23.10
2023-07-16T14:05:01.168Z,23.10
2023-07-16T14:07:29.643Z,23.10
2023-07-16T14:09:59.103Z,23.10
2023-07-16T14:12:27.229Z,23.20
2023-07-16T14:14:55.401Z,23.20
2023-07-16T14:17:23.583Z,23.20
2023-07-16T14:19:51.754Z,23.20
2023-07-16T14:22:19.912Z,23.30
2023-07-16T14:24:51.971Z,23.30
2023-07-16T14:27:21.899Z,23.30
2023-07-16T14:30:04.116Z,23.30
2023-07-16T14:32:34.969Z,23.30
2023-07-16T14:35:03.336Z,23.30
2023-07-16T14:37:31.653Z,23.20
2023-07-16T14:39:59.732Z,23.30
2023-07-16T14:42:29.202Z,23.30
2023-07-16T14:44:57.433Z,23.30
2023-07-16T14:47:25.602Z,23.30
2023-07-16T14:49:53.700Z,23.30
2023-07-16T14:52:21.773Z,23.30
2023-07-16T14:54:49.906Z,23.30
2023-07-16T14:57:18.337Z,23.30
2023-07-16T14:59:48.000Z,23.30
2023-07-16T15:02:16.161Z,23.30
2023-07-16T15:04:44.216Z,23.30
2023-07-16T15:07:12.297Z,23.20
2023-07-16T15:09:40.448Z,23.20
2023-07-16T15:12:09.895Z,23.20
2023-07-16T15:14:38.058Z,23.20
2023-07-16T15:17:08.461Z,23.30
2023-07-16T15:19:36.849Z,23.30
2023-07-16T15:22:05.283Z,23.30
2023-07-16T15:24:35.071Z,23.30
2023-07-16T15:27:03.686Z,23.30
2023-07-16T15:29:31.963Z,23.30
2023-07-16T15:32:02.665Z,23.30
2023-07-16T15:34:32.675Z,23.30
2023-07-16T15:37:00.750Z,23.40
2023-07-16T15:39:28.836Z,23.40
2023-07-16T15:41:56.980Z,23.50
2023-07-16T15:44:25.053Z,23.60
2023-07-16T15:46:53.154Z,23.60
2023-07-16T15:49:21.440Z,23.60
2023-07-16T15:51:51.090Z,23.70
2023-07-16T15:54:19.188Z,23.60
2023-07-16T15:56:47.894Z,23.60
2023-07-16T15:59:16.119Z,23.50
2023-07-16T16:01:44.245Z,23.50
2023-07-16T16:04:12.358Z,23.50
2023-07-16T16:06:40.708Z,23.50
2023-07-16T16:09:12.145Z,23.50
2023-07-16T16:11:40.234Z,23.60
2023-07-16T16:14:10.438Z,23.50
2023-07-16T16:16:47.335Z,23.60
2023-07-16T16:19:21.900Z,23.60
2023-07-16T16:21:49.979Z,23.60
2023-07-16T16:24:19.486Z,23.60
2023-07-16T16:26:47.546Z,23.60
2023-07-16T16:29:15.585Z,23.60
2023-07-16T16:31:43.750Z,23.50
2023-07-16T16:34:11.924Z,23.50
2023-07-16T16:36:39.934Z,23.50
2023-07-16T16:39:08.101Z,23.50
2023-07-16T16:41:37.524Z,23.50
2023-07-16T16:44:06.026Z,23.40
2023-07-16T16:46:34.123Z,23.40
2023-07-16T16:49:03.301Z,23.40
2023-07-16T16:51:31.333Z,23.30
2023-07-16T16:53:59.408Z,23.30
2023-07-16T16:56:27.471Z,23.30
2023-07-16T16:58:56.890Z,23.30
2023-07-16T17:01:25.089Z,23.30
2023-07-16T17:03:53.173Z,23.30
2023-07-16T17:06:21.287Z,23.30
2023-07-16T17:08:49.296Z,23.40
2023-07-16T17:11:17.898Z,23.40
2023-07-16T17:13:46.223Z,23.50
2023-07-16T17:16:15.688Z,23.50
2023-07-16T17:18:44.572Z,23.60
2023-07-16T17:21:12.747Z,23.60
2023-07-16T17:23:40.912Z,23.60
2023-07-16T17:26:08.976Z,23.60
2023-07-16T17:28:37.053Z,23.60
2023-07-16T17:31:05.447Z,23.60
2023-07-16T17:33:34.912Z,23.60
2023-07-16T17:36:03.511Z,23.50
2023-07-16T17:38:31.577Z,23.50
2023-07-16T17:40:59.670Z,23.50
2023-07-16T17:43:29.040Z,23.50
2023-07-16T17:46:00.630Z,23.40
2023-07-16T17:48:30.488Z,23.40
2023-07-16T17:51:02.088Z,23.30
2023-07-16T17:53:30.338Z,23.30
2023-07-16T17:55:58.854Z,23.30
2023-07-16T17:58:27.001Z,23.30
2023-07-16T18:00:57.484Z,23.30
2023-07-16T18:03:26.059Z,23.30
2023-07-16T18:05:55.775Z,23.30
2023-07-16T18:08:25.230Z,23.20
2023-07-16T18:10:56.142Z,23.20
2023-07-16T18:13:24.830Z,23.20
2023-07-16T18:15:52.909Z,23.20
2023-07-16T18:18:22.058Z,23.20
2023-07-16T18:20:51.629Z,23.10
2023-07-16T18:23:22.047Z,23.10
2023-07-16T18:25:51.838Z,23.10
2023-07-16T18:28:19.927Z,23.10
2023-07-16T18:30:47.986Z,23.00
2023-07-16T18:33:16.149Z,23.00
2023-07-16T18:35:46.632Z,23.00
2023-07-16T18:38:14.702Z,22.90
2023-07-16T18:40:42.759Z,22.90
2023-07-16T18:43:12.537Z,22.90
2023-07-16T18:45:40.644Z,22.90
2023-07-16T18:48:08.844Z,22.80
2023-07-16T18:50:37.122Z,22.80
2023-07-16T18:53:05.596Z,22.70
2023-07-16T18:55:33.750Z,22.70
2023-07-16T18:58:01.943Z,22.70
2023-07-16T19:00:31.395Z,22.70
2023-07-16T19:02:59.604Z,22.60
2023-07-16T19:05:27.762Z,22.60
2023-07-16T19:07:55.877Z,22.50
2023-07-16T19:10:24.149Z,22.50
2023-07-16T19:12:52.210Z,22.50
2023-07-16T19:15:20.320Z,22.50
2023-07-16T19:17:49.846Z,22.40
2023-07-16T19:20:18.018Z,22.40
2023-07-16T19:22:46.552Z,22.40
2023-07-16T19:25:14.911Z,22.30
2023-07-16T19:27:43.113Z,22.30
2023-07-16T19:30:12.096Z,22.20
2023-07-16T19:32:40.308Z,22.20
2023-07-16T19:35:10.453Z,22.10
2023-07-16T19:37:38.547Z,22.10
2023-07-16T19:40:11.444Z,22.00
2023-07-16T19:42:39.779Z,22.00
2023-07-16T19:45:09.196Z,21.90
2023-07-16T19:47:38.935Z,21.90
2023-07-16T19:50:09.590Z,21.90
2023-07-16T19:52:37.699Z,21.90
2023-07-16T19:55:06.410Z,21.80
2023-07-16T19:57:35.927Z,21.80
2023-07-16T20:00:10.947Z,21.70
2023-07-16T20:02:42.536Z,21.70
2023-07-16T20:05:12.248Z,21.70
2023-07-16T20:07:40.648Z,21.60
2023-07-16T20:10:10.655Z,21.60
2023-07-16T20:12:39.649Z,21.50
2023-07-16T20:15:09.390Z,21.50
2023-07-16T20:17:37.612Z,21.50
2023-07-16T20:20:11.650Z,21.50
2023-07-16T20:22:41.509Z,21.40
2023-07-16T20:25:12.507Z,21.40
2023-07-16T20:27:40.806Z,21.30
2023-07-16T20:30:10.197Z,21.20
2023-07-16T20:32:41.133Z,21.20
2023-07-16T20:35:12.223Z,21.20
2023-07-16T20:37:41.735Z,21.10
2023-07-16T20:40:12.665Z,21.10
2023-07-16T20:42:42.321Z,21.10
2023-07-16T20:45:16.802Z,21.00
2023-07-16T20:47:46.148Z,21.00
2023-07-16T20:50:16.859Z,21.00
2023-07-16T20:52:48.890Z,20.90
2023-07-16T20:55:17.939Z,20.90
2023-07-16T20:57:46.888Z,20.80
2023-07-16T21:00:19.101Z,20.80
2023-07-16T21:02:48.841Z,20.80
2023-07-16T21:05:17.896Z,20.70
2023-07-16T21:07:49.360Z,20.70
2023-07-16T21:10:23.627Z,20.70
2023-07-16T21:12:52.454Z,20.70
2023-07-16T21:15:22.193Z,20.70
2023-07-16T21:17:50.458Z,20.60
2023-07-16T21:20:19.809Z,20.60
2023-07-16T21:22:49.372Z,20.60
2023-07-16T21:25:17.535Z,20.60
2023-07-16T21:27:50.230Z,20.60
2023-07-16T21:30:19.181Z,20.60
2023-07-16T21:32:48.377Z,20.60
2023-07-16T21:35:16.718Z,20.50
2023-07-16T21:37:45.024Z,20.50
2023-07-16T21:40:15.869Z,20.50
2023-07-16T21:42:44.097Z,20.50
2023-07-16T21:45:13.031Z,20.50
2023-07-16T21:47:41.581Z,20.50
2023-07-16T21:50:10.718Z,20.50
2023-07-16T21:52:41.003Z,20.50
2023-07-16T21:55:10.323Z,20.40
2023-07-16T21:57:39.784Z,20.40
2023-07-16T22:00:13.931Z,20.40
2023-07-16T22:02:43.068Z,20.40
2023-07-16T22:05:11.858Z,20.40
2023-07-16T22:07:43.517Z,20.30
2023-07-16T22:10:12.408Z,20.30
2023-07-16T22:12:42.681Z,20.30
2023-07-16T22:15:11.773Z,20.30
2023-07-16T22:17:40.136Z,20.20
2023-07-16T22:20:11.587Z,20.20
2023-07-16T22:22:40.121Z,20.20
2023-07-16T22:25:08.873Z,20.20
2023-07-16T22:27:37.096Z,20.20
2023-07-16T22:30:07.951Z,20.20
2023-07-16T22:32:36.187Z,20.20
2023-07-16T22:35:04.802Z,20.10
2023-07-16T22:37:32.933Z,20.10
2023-07-16T22:40:01.162Z,20.10
2023-07-16T22:42:29.272Z,20.10
2023-07-16T22:44:57.393Z,20.10
2023-07-16T22:47:26.974Z,20.10
2023-07-16T22:49:55.261Z,20.10
2023-07-16T22:52:23.452Z,20.00
2023-07-16T22:54:51.617Z,20.00
2023-07-16T22:57:19.774Z,20.00
2023-07-16T22:59:47.881Z,19.90
2023-07-16T23:02:16.349Z,19.90
2023-07-16T23:04:45.942Z,19.90
2023-07-16T23:07:14.094Z,19.90
2023-07-16T23:09:42.380Z,19.90
2023-07-16T23:12:10.684Z,19.90
2023-07-16T23:14:41.337Z,19.90
2023-07-16T23:17:09.496Z,19.80
2023-07-16T23:19:37.722Z,19.80
2023-07-16T23:22:07.480Z,19.80
2023-07-16T23:24:35.706Z,19.80
2023-07-16T23:27:04.298Z,19.80
2023-07-16T23:29:32.431Z,19.80
2023-07-16T23:32:00.552Z,19.70
2023-07-16T23:34:29.153Z,19.70
2023-07-16T23:36:58.999Z,19.70
2023-07-16T23:39:28.644Z,19.60
2023-07-16T23:41:57.013Z,19.60
2023-07-16T23:44:25.082Z,19.60
2023-07-16T23:46:55.551Z,19.60
2023-07-16T23:49:23.723Z,19.60
2023-07-16T23:51:52.219Z,19.50
2023-07-16T23:54:22.933Z,19.50
2023-07-16T23:56:52.919Z,19.50
2023-07-16T23:59:21.152Z,19.40
